createdAt,value
2018-09-13T00:00:09.206Z,100644.51
2018-09-13T00:02:38.221Z,100650.59
2018-09-13T00:05:07.202Z,100654.91
2018-09-13T00:07:36.250Z,100654.50
2018-09-13T00:10:05.280Z,100650.37
2018-09-13T00:12:34.234Z,100650.34
2018-09-13T00:15:03.218Z,100650.14
2018-09-13T00:17:32.196Z,100643.16
2018-09-13T00:20:01.101Z,100647.22
2018-09-13T00:22:30.081Z,100641.22
2018-09-13T00:24:59.058Z,100637.11
2018-09-13T00:27:28.093Z,100640.33
2018-09-13T00:29:57.090Z,100627.78
2018-09-13T00:32:26.086Z,100623.87
2018-09-13T00:34:55.125Z,100619.23
2018-09-13T00:37:24.041Z,100614.95
2018-09-13T00:39:52.994Z,100608.77
2018-09-13T00:42:21.950Z,100614.88
2018-09-13T00:44:50.901Z,100609.26
2018-09-13T00:47:19.938Z,100615.39
2018-09-13T00:49:48.911Z,100617.52
2018-09-13T00:52:17.910Z,100611.84
2018-09-13T00:54:46.806Z,100616.63
2018-09-13T00:57:15.769Z,100615.89
2018-09-13T00:59:44.725Z,100620.97
2018-09-13T01:02:13.695Z,100626.87
2018-09-13T01:04:42.722Z,100625.20
2018-09-13T01:07:11.698Z,100621.01
2018-09-13T01:09:40.696Z,100618.22
2018-09-13T01:12:09.836Z,100617.94
2018-09-13T01:14:38.793Z,100620.77
2018-09-13T01:17:07.881Z,100627.75
2018-09-13T01:19:36.807Z,100626.40
2018-09-13T01:22:05.750Z,100625.28
2018-09-13T01:24:34.641Z,100625.94
2018-09-13T01:27:03.661Z,100625.16
2018-09-13T01:29:32.627Z,100623.78
2018-09-13T01:32:01.629Z,100619.50
2018-09-13T01:34:30.636Z,100618.03
2018-09-13T01:36:59.714Z,100617.43
2018-09-13T01:39:28.689Z,100621.33
2018-09-13T01:41:57.699Z,100629.17
2018-09-13T01:44:26.694Z,100631.08
2018-09-13T01:46:55.773Z,100627.32
2018-09-13T01:49:24.699Z,100628.06
2018-09-13T01:51:53.713Z,100633.91
2018-09-13T01:54:22.617Z,100633.05
2018-09-13T01:56:51.601Z,100630.22
2018-09-13T01:59:20.522Z,100627.83
2018-09-13T02:01:49.566Z,100628.00
2018-09-13T02:04:18.471Z,100624.59
2018-09-13T02:06:47.478Z,100625.48
2018-09-13T02:09:16.438Z,100619.66
2018-09-13T02:11:45.457Z,100621.89
2018-09-13T02:14:14.463Z,100627.20
2018-09-13T02:16:43.621Z,100626.81
2018-09-13T02:19:12.606Z,100627.84
2018-09-13T02:21:41.549Z,100630.84
2018-09-13T02:24:10.558Z,100638.84
2018-09-13T02:26:39.609Z,100632.50
2018-09-13T02:29:08.602Z,100629.63
2018-09-13T02:31:37.492Z,100623.45
2018-09-13T02:34:06.441Z,100624.84
2018-09-13T02:36:35.409Z,100623.41
2018-09-13T02:39:05.725Z,100623.04
2018-09-13T02:41:34.711Z,100620.63
2018-09-13T02:44:04.143Z,100608.03
2018-09-13T02:46:33.250Z,100607.95
2018-09-13T02:49:02.338Z,100604.94
2018-09-13T02:51:31.290Z,100608.62
2018-09-13T02:54:00.508Z,100607.63
2018-09-13T02:56:29.727Z,100607.28
2018-09-13T02:58:58.739Z,100607.73
2018-09-13T03:01:27.696Z,100604.38
2018-09-13T03:03:56.833Z,100601.59
2018-09-13T03:06:25.795Z,100604.45
2018-09-13T03:08:54.742Z,100594.80
2018-09-13T03:11:23.756Z,100595.83
2018-09-13T03:13:52.795Z,100590.72
2018-09-13T03:16:21.793Z,100593.77
2018-09-13T03:18:50.821Z,100597.44
2018-09-13T03:21:19.774Z,100598.34
2018-09-13T03:23:48.873Z,100591.78
2018-09-13T03:26:17.809Z,100593.45
2018-09-13T03:28:46.941Z,100583.36
2018-09-13T03:31:15.881Z,100577.62
2018-09-13T03:33:44.997Z,100578.95
2018-09-13T03:36:13.961Z,100573.70
2018-09-13T03:38:43.001Z,100573.47
2018-09-13T03:41:11.893Z,100570.76
2018-09-13T03:43:41.003Z,100571.59
2018-09-13T03:46:10.060Z,100559.47
2018-09-13T03:48:39.123Z,100560.85
2018-09-13T03:51:08.087Z,100561.85
2018-09-13T03:53:37.130Z,100563.23
2018-09-13T03:56:06.237Z,100562.91
2018-09-13T03:58:35.229Z,100563.20
2018-09-13T04:01:04.266Z,100558.16
2018-09-13T04:03:33.355Z,100559.19
2018-09-13T04:06:02.406Z,100561.86
2018-09-13T04:08:31.471Z,100562.03
2018-09-13T04:11:00.449Z,100563.72
2018-09-13T04:13:29.511Z,100564.86
2018-09-13T04:15:58.519Z,100568.91
2018-09-13T04:18:27.469Z,100566.72
2018-09-13T04:20:56.349Z,100574.29
2018-09-13T04:23:25.318Z,100575.34
2018-09-13T04:25:54.328Z,100569.61
2018-09-13T04:28:23.395Z,100569.62
2018-09-13T04:30:52.306Z,100565.75
2018-09-13T04:33:21.314Z,100564.58
2018-09-13T04:35:50.407Z,100560.56
2018-09-13T04:38:19.405Z,100563.92
2018-09-13T04:40:48.334Z,100558.20
2018-09-13T04:43:17.369Z,100558.05
2018-09-13T04:45:46.863Z,100560.34
2018-09-13T04:48:15.988Z,100563.24
2018-09-13T04:50:44.885Z,100567.65
2018-09-13T04:53:13.922Z,100561.30
2018-09-13T04:55:43.073Z,100556.53
2018-09-13T04:58:12.145Z,100556.06
2018-09-13T05:00:41.173Z,100558.73
2018-09-13T05:03:10.163Z,100555.87
2018-09-13T05:05:39.161Z,100554.38
2018-09-13T05:08:08.154Z,100546.48
2018-09-13T05:10:37.119Z,100544.26
2018-09-13T05:13:06.249Z,100552.37
2018-09-13T05:15:35.294Z,100555.53
2018-09-13T05:18:04.282Z,100548.33
2018-09-13T05:20:33.264Z,100550.67
2018-09-13T05:23:02.230Z,100542.27
2018-09-13T05:25:31.293Z,100536.02
2018-09-13T05:28:00.257Z,100546.48
2018-09-13T05:30:29.290Z,100547.77
2018-09-13T05:32:58.208Z,100547.45
2018-09-13T05:35:27.233Z,100547.45
2018-09-13T05:37:56.162Z,100555.52
2018-09-13T05:40:25.293Z,100553.50
2018-09-13T05:42:54.367Z,100556.84
2018-09-13T05:45:23.303Z,100565.97
2018-09-13T05:47:52.222Z,100556.02
2018-09-13T05:50:21.192Z,100569.46
2018-09-13T05:52:50.221Z,100571.01
2018-09-13T05:55:19.301Z,100568.92
2018-09-13T05:57:48.282Z,100574.02
2018-09-13T06:00:17.265Z,100583.13
2018-09-13T06:02:46.221Z,100589.72
2018-09-13T06:05:15.355Z,100596.22
2018-09-13T06:07:44.285Z,100590.81
2018-09-13T06:10:13.418Z,100595.16
2018-09-13T06:12:42.381Z,100598.07
2018-09-13T06:15:11.382Z,100596.08
2018-09-13T06:17:41.233Z,100589.86
2018-09-13T06:20:10.291Z,100596.06
2018-09-13T06:22:39.327Z,100599.61
2018-09-13T06:25:08.373Z,100603.83
2018-09-13T06:27:37.288Z,100606.81
2018-09-13T06:30:06.317Z,100620.75
2018-09-13T06:32:35.269Z,100620.45
2018-09-13T06:35:04.345Z,100617.21
2018-09-13T06:37:33.293Z,100616.99
2018-09-13T06:40:02.333Z,100617.03
2018-09-13T06:42:31.520Z,100610.48
2018-09-13T06:45:00.464Z,100606.99
2018-09-13T06:47:29.410Z,100608.20
2018-09-13T06:49:58.422Z,100603.61
2018-09-13T06:52:27.421Z,100609.34
2018-09-13T06:54:56.452Z,100615.74
2018-09-13T06:57:25.795Z,100623.66
2018-09-13T06:59:54.805Z,100616.05
2018-09-13T07:02:24.005Z,100615.37
2018-09-13T07:04:53.331Z,100615.69
2018-09-13T07:07:22.433Z,100619.08
2018-09-13T07:09:51.422Z,100617.63
2018-09-13T07:12:20.426Z,100630.14
2018-09-13T07:14:49.517Z,100633.48
2018-09-13T07:17:18.433Z,100639.09
2018-09-13T07:19:47.477Z,100622.86
2018-09-13T07:22:16.449Z,100630.73
2018-09-13T07:24:45.444Z,100627.27
2018-09-13T07:27:14.366Z,100628.37
2018-09-13T07:29:43.367Z,100622.75
2018-09-13T07:32:12.345Z,100633.14
2018-09-13T07:34:41.350Z,100639.69
2018-09-13T07:37:10.290Z,100643.33
2018-09-13T07:39:39.348Z,100641.16
2018-09-13T07:42:08.411Z,100640.91
2018-09-13T07:44:37.667Z,100636.13
2018-09-13T07:47:06.711Z,100646.23
2018-09-13T07:49:35.718Z,100649.34
2018-09-13T07:52:04.642Z,100645.09
2018-09-13T07:54:33.614Z,100647.41
2018-09-13T07:57:02.645Z,100653.78
2018-09-13T07:59:31.757Z,100654.11
2018-09-13T08:02:00.750Z,100648.83
2018-09-13T08:04:29.726Z,100656.41
2018-09-13T08:06:58.762Z,100663.78
2018-09-13T08:09:28.087Z,100653.23
2018-09-13T08:11:56.942Z,100653.75
2018-09-13T08:14:25.812Z,100659.48
2018-09-13T08:16:54.957Z,100658.88
2018-09-13T08:19:23.977Z,100655.53
2018-09-13T08:21:52.954Z,100656.19
2018-09-13T08:24:21.870Z,100657.31
2018-09-13T08:26:50.937Z,100658.73
2018-09-13T08:29:19.976Z,100659.36
2018-09-13T08:31:49.003Z,100664.94
2018-09-13T08:34:17.954Z,100665.70
2018-09-13T08:36:47.016Z,100668.66
2018-09-13T08:39:15.980Z,100679.80
2018-09-13T08:41:44.941Z,100688.14
2018-09-13T08:44:13.846Z,100687.13
2018-09-13T08:46:42.817Z,100691.68
2018-09-13T08:49:11.778Z,100675.30
2018-09-13T08:51:40.778Z,100676.75
2018-09-13T08:54:09.651Z,100671.39
2018-09-13T08:56:38.666Z,100679.18
2018-09-13T08:59:07.646Z,100680.42
2018-09-13T09:01:36.698Z,100685.25
2018-09-13T09:04:05.658Z,100685.09
2018-09-13T09:06:34.711Z,100694.31
2018-09-13T09:09:03.805Z,100685.18
2018-09-13T09:11:32.762Z,100683.95
2018-09-13T09:14:01.899Z,100676.38
2018-09-13T09:16:30.990Z,100662.83
2018-09-13T09:18:59.897Z,100652.96
2018-09-13T09:21:28.886Z,100646.99
2018-09-13T09:23:57.888Z,100644.37
2018-09-13T09:26:26.873Z,100641.17
2018-09-13T09:28:55.943Z,100639.18
2018-09-13T09:31:24.943Z,100630.22
2018-09-13T09:33:53.945Z,100647.63
2018-09-13T09:36:22.915Z,100657.52
2018-09-13T09:38:51.899Z,100657.57
2018-09-13T09:41:20.915Z,100665.87
2018-09-13T09:43:49.841Z,100673.55
2018-09-13T09:46:18.810Z,100687.39
2018-09-13T09:48:47.773Z,100680.03
2018-09-13T09:51:16.769Z,100685.89
2018-09-13T09:53:45.722Z,100686.21
2018-09-13T09:56:14.829Z,100688.27
2018-09-13T09:58:43.793Z,100690.85
2018-09-13T10:01:17.797Z,100682.09
2018-09-13T10:03:46.956Z,100680.94
2018-09-13T10:06:16.010Z,100682.30
2018-09-13T10:08:44.927Z,100687.44
2018-09-13T10:11:13.853Z,100680.86
2018-09-13T10:13:42.791Z,100679.64
2018-09-13T10:16:17.140Z,100689.72
2018-09-13T10:18:47.093Z,100689.44
2018-09-13T10:21:21.188Z,100692.78
2018-09-13T10:23:55.181Z,100699.52
2018-09-13T10:26:29.185Z,100700.33
2018-09-13T10:29:03.468Z,100691.05
2018-09-13T10:31:37.409Z,100678.05
2018-09-13T10:34:11.545Z,100671.41
2018-09-13T10:36:45.750Z,100674.42
2018-09-13T10:39:19.967Z,100690.83
2018-09-13T10:41:53.940Z,100697.05
2018-09-13T10:44:28.110Z,100696.47
2018-09-13T10:47:02.268Z,100693.14
2018-09-13T10:49:36.366Z,100691.47
2018-09-13T10:52:14.154Z,100682.90
2018-09-13T10:54:43.757Z,100669.88
2018-09-13T10:57:17.762Z,100672.84
2018-09-13T10:59:47.837Z,100675.75
2018-09-13T11:02:16.864Z,100677.49
2018-09-13T11:04:46.001Z,100664.13
2018-09-13T11:07:14.973Z,100653.78
2018-09-13T11:09:43.907Z,100644.51
2018-09-13T11:12:12.966Z,100647.84
2018-09-13T11:14:56.988Z,100661.41
2018-09-13T11:17:26.757Z,100670.53
2018-09-13T11:19:56.079Z,100665.02
2018-09-13T11:22:25.075Z,100678.05
2018-09-13T11:24:54.030Z,100679.34
2018-09-13T11:27:23.056Z,100678.95
2018-09-13T11:29:52.004Z,100678.00
2018-09-13T11:32:21.102Z,100682.17
2018-09-13T11:34:50.046Z,100677.36
2018-09-13T11:37:18.991Z,100689.17
2018-09-13T11:39:47.981Z,100688.71
2018-09-13T11:42:17.002Z,100687.00
2018-09-13T11:44:45.978Z,100690.53
2018-09-13T11:47:15.046Z,100689.27
2018-09-13T11:49:44.023Z,100682.27
2018-09-13T11:52:12.989Z,100676.56
2018-09-13T11:54:41.881Z,100673.61
2018-09-13T11:57:10.838Z,100662.70
2018-09-13T11:59:39.801Z,100659.77
2018-09-13T12:02:08.753Z,100656.72
2018-09-13T12:04:37.838Z,100646.12
2018-09-13T12:07:06.761Z,100653.00
2018-09-13T12:09:35.904Z,100653.31
2018-09-13T12:12:04.861Z,100642.80
2018-09-13T12:14:33.916Z,100639.00
2018-09-13T12:17:02.837Z,100642.48
2018-09-13T12:19:31.852Z,100650.16
2018-09-13T12:22:00.911Z,100652.06
2018-09-13T12:24:29.953Z,100653.58
2018-09-13T12:26:59.005Z,100651.73
2018-09-13T12:29:27.981Z,100662.47
2018-09-13T12:31:56.988Z,100660.61
2018-09-13T12:34:26.034Z,100670.53
2018-09-13T12:36:55.015Z,100663.25
2018-09-13T12:39:24.025Z,100666.00
2018-09-13T12:41:53.017Z,100669.48
2018-09-13T12:44:22.013Z,100665.25
2018-09-13T12:46:50.941Z,100674.81
2018-09-13T12:49:20.373Z,100674.14
2018-09-13T12:51:49.395Z,100671.02
2018-09-13T12:54:18.473Z,100658.84
2018-09-13T12:56:47.551Z,100658.78
2018-09-13T12:59:16.563Z,100659.02
2018-09-13T13:01:45.516Z,100651.56
2018-09-13T13:04:14.522Z,100663.32
2018-09-13T13:06:43.441Z,100663.00
2018-09-13T13:09:12.520Z,100662.56
2018-09-13T13:11:41.592Z,100663.75
2018-09-13T13:14:10.673Z,100658.62
2018-09-13T13:16:39.706Z,100656.91
2018-09-13T13:19:08.677Z,100645.12
2018-09-13T13:21:37.687Z,100655.47
2018-09-13T13:24:06.740Z,100652.25
2018-09-13T13:26:35.787Z,100643.71
2018-09-13T13:29:04.847Z,100635.69
2018-09-13T13:31:33.792Z,100636.66
2018-09-13T13:34:02.738Z,100652.29
2018-09-13T13:36:31.760Z,100661.17
2018-09-13T13:39:00.663Z,100659.62
2018-09-13T13:41:29.663Z,100649.95
2018-09-13T13:43:58.622Z,100643.19
2018-09-13T13:46:27.729Z,100639.39
2018-09-13T13:48:56.750Z,100632.59
2018-09-13T13:51:25.755Z,100622.58
2018-09-13T13:53:54.739Z,100619.84
2018-09-13T13:56:23.689Z,100625.09
2018-09-13T13:58:52.721Z,100622.64
2018-09-13T14:01:21.685Z,100626.94
2018-09-13T14:03:50.794Z,100614.27
2018-09-13T14:06:19.786Z,100620.22
2018-09-13T14:08:48.897Z,100623.16
2018-09-13T14:11:17.828Z,100624.20
2018-09-13T14:13:46.871Z,100619.66
2018-09-13T14:16:15.878Z,100616.83
2018-09-13T14:18:44.993Z,100609.81
2018-09-13T14:21:13.927Z,100607.55
2018-09-13T14:23:42.910Z,100601.73
2018-09-13T14:26:11.917Z,100601.56
2018-09-13T14:28:40.875Z,100598.88
2018-09-13T14:31:09.782Z,100596.45
2018-09-13T14:33:38.719Z,100601.53
2018-09-13T14:36:07.407Z,100602.80
2018-09-13T14:38:36.377Z,100599.77
2018-09-13T14:41:05.361Z,100601.28
2018-09-13T14:43:34.402Z,100600.25
2018-09-13T14:46:03.489Z,100606.09
2018-09-13T14:48:32.419Z,100608.30
2018-09-13T14:51:01.445Z,100600.61
2018-09-13T14:53:30.368Z,100609.82
2018-09-13T14:55:59.389Z,100611.00
2018-09-13T14:58:28.372Z,100617.94
2018-09-13T15:00:57.321Z,100611.17
2018-09-13T15:03:26.374Z,100609.47
2018-09-13T15:05:55.364Z,100612.27
2018-09-13T15:08:24.335Z,100611.17
2018-09-13T15:10:53.537Z,100617.69
2018-09-13T15:13:22.511Z,100621.09
2018-09-13T15:15:51.658Z,100611.07
2018-09-13T15:18:20.655Z,100617.71
2018-09-13T15:20:49.594Z,100619.20
2018-09-13T15:23:18.541Z,100620.42
2018-09-13T15:25:47.564Z,100618.65
2018-09-13T15:28:16.526Z,100611.33
2018-09-13T15:30:45.582Z,100614.52
2018-09-13T15:33:14.501Z,100615.60
2018-09-13T15:35:43.540Z,100617.32
2018-09-13T15:38:12.546Z,100613.63
2018-09-13T15:40:41.692Z,100615.98
2018-09-13T15:43:10.653Z,100616.97
2018-09-13T15:45:39.685Z,100616.16
2018-09-13T15:48:08.654Z,100617.88
2018-09-13T15:50:37.678Z,100617.64
2018-09-13T15:53:06.621Z,100613.63
2018-09-13T15:55:35.587Z,100610.94
2018-09-13T15:58:04.676Z,100617.48
2018-09-13T16:00:33.658Z,100611.41
2018-09-13T16:03:02.667Z,100616.43
2018-09-13T16:05:31.754Z,100616.73
2018-09-13T16:08:00.716Z,100608.27
2018-09-13T16:10:29.793Z,100608.66
2018-09-13T16:12:58.792Z,100611.52
2018-09-13T16:15:27.741Z,100617.30
2018-09-13T16:17:56.751Z,100608.88
2018-09-13T16:20:26.230Z,100613.81
2018-09-13T16:22:54.839Z,100607.70
2018-09-13T16:25:23.830Z,100611.76
2018-09-13T16:27:52.794Z,100609.31
2018-09-13T16:30:21.806Z,100610.59
2018-09-13T16:32:50.811Z,100610.32
2018-09-13T16:35:19.893Z,100617.88
2018-09-13T16:37:54.860Z,100612.85
2018-09-13T16:40:28.998Z,100609.67
2018-09-13T16:43:03.113Z,100618.81
2018-09-13T16:45:32.507Z,100613.22
2018-09-13T16:48:03.097Z,100615.15
2018-09-13T16:50:32.124Z,100623.02
2018-09-13T16:53:01.135Z,100625.12
2018-09-13T16:55:30.143Z,100624.27
2018-09-13T16:57:59.079Z,100621.34
2018-09-13T17:00:28.305Z,100628.91
2018-09-13T17:02:57.281Z,100631.55
2018-09-13T17:05:26.434Z,100628.08
2018-09-13T17:07:55.425Z,100619.52
2018-09-13T17:10:24.429Z,100629.61
2018-09-13T17:12:53.411Z,100624.83
2018-09-13T17:15:22.484Z,100626.86
2018-09-13T17:17:51.500Z,100628.78
2018-09-13T17:20:20.556Z,100627.45
2018-09-13T17:22:49.665Z,100630.25
2018-09-13T17:25:18.638Z,100617.72
2018-09-13T17:27:47.602Z,100625.75
2018-09-13T17:30:16.654Z,100635.33
2018-09-13T17:32:45.686Z,100633.86
2018-09-13T17:35:14.702Z,100631.73
2018-09-13T17:37:43.700Z,100629.36
2018-09-13T17:40:12.801Z,100633.34
2018-09-13T17:42:42.102Z,100635.78
2018-09-13T17:45:11.149Z,100640.70
2018-09-13T17:47:40.150Z,100643.37
2018-09-13T17:50:09.230Z,100646.21
2018-09-13T17:52:38.235Z,100648.64
2018-09-13T17:55:07.358Z,100641.31
2018-09-13T17:57:36.352Z,100642.66
2018-09-13T18:00:05.497Z,100653.09
2018-09-13T18:02:34.460Z,100659.69
2018-09-13T18:05:03.414Z,100653.45
2018-09-13T18:07:32.490Z,100656.52
2018-09-13T18:10:01.443Z,100662.69
2018-09-13T18:12:30.400Z,100665.28
2018-09-13T18:14:59.410Z,100661.08
2018-09-13T18:17:28.445Z,100665.77
2018-09-13T18:19:57.491Z,100668.15
2018-09-13T18:22:26.577Z,100670.06
2018-09-13T18:24:55.580Z,100669.67
2018-09-13T18:27:24.750Z,100677.08
2018-09-13T18:29:53.711Z,100680.14
2018-09-13T18:32:22.754Z,100675.88
2018-09-13T18:34:51.743Z,100683.19
2018-09-13T18:37:20.759Z,100678.45
2018-09-13T18:39:49.761Z,100679.12
2018-09-13T18:42:18.752Z,100686.75
2018-09-13T18:44:47.685Z,100680.62
2018-09-13T18:47:16.998Z,100684.84
2018-09-13T18:49:46.015Z,100680.34
2018-09-13T18:52:14.962Z,100685.53
2018-09-13T18:54:43.897Z,100683.80
2018-09-13T18:57:12.934Z,100686.09
2018-09-13T18:59:42.022Z,100678.00
2018-09-13T19:02:11.022Z,100681.92
2018-09-13T19:04:39.943Z,100684.29
2018-09-13T19:07:08.972Z,100687.87
2018-09-13T19:09:37.940Z,100682.25
2018-09-13T19:12:07.090Z,100686.80
2018-09-13T19:14:36.001Z,100679.73
2018-09-13T19:17:05.211Z,100688.33
2018-09-13T19:19:34.131Z,100694.75
2018-09-13T19:22:03.126Z,100693.70
2018-09-13T19:24:32.124Z,100695.72
2018-09-13T19:27:01.254Z,100702.88
2018-09-13T19:29:30.247Z,100699.52
2018-09-13T19:31:59.257Z,100701.53
2018-09-13T19:34:28.569Z,100705.79
2018-09-13T19:36:57.557Z,100712.20
2018-09-13T19:39:26.564Z,100711.21
2018-09-13T19:41:55.644Z,100719.97
2018-09-13T19:44:24.653Z,100716.48
2018-09-13T19:46:53.620Z,100716.33
2018-09-13T19:49:22.528Z,100715.00
2018-09-13T19:51:51.508Z,100722.16
2018-09-13T19:54:20.557Z,100724.17
2018-09-13T19:56:49.589Z,100720.02
2018-09-13T19:59:18.482Z,100719.97
2018-09-13T20:01:47.522Z,100716.94
2018-09-13T20:04:16.473Z,100719.98
2018-09-13T20:06:45.502Z,100721.70
2018-09-13T20:09:14.455Z,100722.70
2018-09-13T20:11:43.468Z,100721.05
2018-09-13T20:14:12.421Z,100712.34
2018-09-13T20:16:41.409Z,100718.03
2018-09-13T20:19:10.358Z,100718.87
2018-09-13T20:21:39.422Z,100713.48
2018-09-13T20:24:08.394Z,100705.18
2018-09-13T20:26:37.461Z,100712.77
2018-09-13T20:29:06.858Z,100713.00
2018-09-13T20:31:35.788Z,100718.70
2018-09-13T20:34:04.833Z,100714.70
2018-09-13T20:36:33.841Z,100715.63
2018-09-13T20:39:02.812Z,100717.70
2018-09-13T20:41:31.772Z,100712.66
2018-09-13T20:44:00.765Z,100710.84
2018-09-13T20:46:29.783Z,100709.01
2018-09-13T20:48:58.788Z,100710.04
2018-09-13T20:51:27.732Z,100712.66
2018-09-13T20:53:56.714Z,100707.69
2018-09-13T20:56:25.723Z,100704.97
2018-09-13T20:58:54.745Z,100708.66
2018-09-13T21:01:23.693Z,100712.68
2018-09-13T21:03:52.667Z,100709.50
2018-09-13T21:06:21.651Z,100707.23
2018-09-13T21:08:50.622Z,100707.24
2018-09-13T21:11:19.541Z,100698.75
2018-09-13T21:13:48.593Z,100703.12
2018-09-13T21:16:17.545Z,100706.81
2018-09-13T21:18:46.559Z,100704.56
2018-09-13T21:21:15.619Z,100707.34
2018-09-13T21:23:44.613Z,100705.48
2018-09-13T21:26:13.623Z,100705.58
2018-09-13T21:28:42.669Z,100707.11
2018-09-13T21:31:11.698Z,100708.25
2018-09-13T21:33:40.780Z,100709.59
2018-09-13T21:36:09.769Z,100703.91
2018-09-13T21:38:38.802Z,100706.23
2018-09-13T21:41:07.833Z,100706.95
2018-09-13T21:43:36.850Z,100711.12
2018-09-13T21:46:05.811Z,100702.22
2018-09-13T21:48:34.804Z,100707.73
2018-09-13T21:51:03.737Z,100706.41
2018-09-13T21:53:32.803Z,100707.63
2018-09-13T21:56:01.741Z,100703.23
2018-09-13T21:58:30.748Z,100707.29
2018-09-13T22:00:59.736Z,100712.83
2018-09-13T22:03:28.718Z,100714.05
2018-09-13T22:05:57.645Z,100715.08
2018-09-13T22:08:26.636Z,100727.02
2018-09-13T22:10:55.607Z,100717.63
2018-09-13T22:13:28.126Z,100715.77
2018-09-13T22:15:57.059Z,100720.98
2018-09-13T22:18:26.034Z,100724.84
2018-09-13T22:20:55.002Z,100725.48
2018-09-13T22:23:24.003Z,100729.57
2018-09-13T22:25:52.973Z,100731.23
2018-09-13T22:28:22.018Z,100726.66
2018-09-13T22:30:51.097Z,100731.59
2018-09-13T22:33:20.072Z,100724.84
2018-09-13T22:35:49.018Z,100735.61
2018-09-13T22:38:18.124Z,100732.43
2018-09-13T22:40:47.106Z,100737.31
2018-09-13T22:43:16.114Z,100738.27
2018-09-13T22:45:45.079Z,100735.86
2018-09-13T22:48:14.105Z,100736.56
2018-09-13T22:50:43.084Z,100738.80
2018-09-13T22:53:12.074Z,100732.19
2018-09-13T22:55:41.176Z,100732.59
2018-09-13T22:58:10.133Z,100725.19
2018-09-13T23:00:39.142Z,100727.02
2018-09-13T23:03:08.126Z,100736.47
2018-09-13T23:05:37.053Z,100730.59
2018-09-13T23:08:06.057Z,100732.25
2018-09-13T23:10:35.060Z,100732.93
2018-09-13T23:13:04.069Z,100726.70
2018-09-13T23:15:33.015Z,100735.30
2018-09-13T23:18:02.151Z,100734.61
2018-09-13T23:20:31.102Z,100735.63
2018-09-13T23:23:00.197Z,100743.86
2018-09-13T23:25:29.640Z,100741.22
2018-09-13T23:27:58.754Z,100735.78
2018-09-13T23:30:27.787Z,100734.63
2018-09-13T23:32:56.824Z,100733.27
2018-09-13T23:35:25.792Z,100741.36
2018-09-13T23:37:54.721Z,100745.89
2018-09-13T23:40:23.873Z,100748.75
2018-09-13T23:42:52.800Z,100744.02
2018-09-13T23:45:21.804Z,100753.78
2018-09-13T23:47:50.764Z,100753.79
2018-09-13T23:50:19.817Z,100758.35
2018-09-13T23:52:48.774Z,100762.88
2018-09-13T23:55:17.724Z,100761.36
2018-09-13T23:57:46.698Z,100759.17
